EGTC weather

Cranfield Airport
Cranfield, England, United Kingdom

Public forecast

Using degrees Celsius for public forecast. Weather courtesy of forecast.io.

Current aviation weather report (METAR) for Cranfield Airport

Retrieved 2019/10/14 15:20 UTC (0 seconds ago):

EGTC 141520Z 05012KT 2000 RADZ OVC003 11/11 Q1002

Closest aviation forecast (TAF) to Cranfield Airport

Closest forecast is London Luton Airport, 15.0 nm (27.8 km) SE. Retrieved 2019/10/14 12:00 UTC (3 hours ago):

TAF EGGW 141102Z 1412/1512 08010KT 9999 -RA SCT003 BKN025 BECMG 1412/1415 6000 OVC003 TEMPO 1412/1420 3000 RA BR BECMG 1415/1418 17010KT PROB30 TEMPO 1415/1420 1200 +RA OVC001 BECMG 1418/1421 25008KT TEMPO 1420/1509 3000 -DZ BR OVC001 PROB30 TEMPO 1420/1507 0300 FG BECMG 1509/1512 9999 NSW FEW004 SCT020 PROB30 TEMPO 1509/1512 4500 SHRA